createdAt,value
2022-08-11T00:03:16.593Z,2.50
2022-08-11T00:07:19.196Z,2.50
2022-08-11T00:11:21.679Z,2.37
2022-08-11T00:15:24.487Z,2.40
2022-08-11T00:20:14.977Z,2.30
2022-08-11T00:23:54.815Z,2.43
2022-08-11T00:27:56.501Z,2.30
2022-08-11T00:32:01.423Z,2.67
2022-08-11T00:36:06.226Z,2.53
2022-08-11T00:40:18.415Z,2.50
2022-08-11T00:44:36.315Z,2.60
2022-08-11T00:48:45.827Z,2.70
2022-08-11T00:53:12.471Z,2.37
2022-08-11T00:57:37.235Z,2.40
2022-08-11T01:01:55.149Z,2.20
2022-08-11T01:06:08.080Z,2.30
2022-08-11T01:10:42.431Z,2.20
2022-08-11T01:15:19.603Z,2.23
2022-08-11T01:20:39.425Z,2.20
2022-08-11T01:24:56.098Z,2.23
2022-08-11T01:29:33.152Z,2.60
2022-08-11T01:34:15.891Z,2.27
2022-08-11T01:39:02.205Z,2.57
2022-08-11T01:43:28.813Z,2.50
2022-08-11T01:47:35.699Z,2.27
2022-08-11T01:51:58.911Z,2.60
2022-08-11T01:56:13.955Z,2.50
2022-08-11T02:00:20.019Z,2.70
2022-08-11T02:04:30.956Z,2.30
2022-08-11T02:08:49.559Z,2.60
2022-08-11T02:13:00.659Z,2.63
2022-08-11T02:17:15.245Z,2.60
2022-08-11T02:21:24.919Z,2.70
2022-08-11T02:25:34.634Z,2.53
2022-08-11T02:29:46.904Z,2.40
2022-08-11T02:33:57.323Z,2.40
2022-08-11T02:38:12.282Z,2.80
2022-08-11T02:42:32.458Z,2.80
2022-08-11T02:46:51.327Z,2.37
2022-08-11T02:51:07.481Z,2.37
2022-08-11T02:55:44.604Z,2.50
2022-08-11T02:59:51.599Z,2.47
2022-08-11T03:04:01.494Z,2.37
2022-08-11T03:08:29.249Z,2.37
2022-08-11T03:12:41.324Z,2.27
2022-08-11T03:16:51.946Z,2.30
2022-08-11T03:21:07.384Z,2.27
2022-08-11T03:25:18.109Z,2.10
2022-08-11T03:29:28.950Z,2.23
2022-08-11T03:33:37.635Z,2.40
2022-08-11T03:37:56.493Z,2.17
2022-08-11T03:42:10.100Z,2.40
2022-08-11T03:46:16.678Z,2.47
2022-08-11T03:50:30.474Z,2.70
2022-08-11T03:54:50.532Z,2.60
2022-08-11T03:59:16.246Z,2.77
2022-08-11T04:03:45.325Z,2.63
2022-08-11T04:08:37.590Z,2.57
2022-08-11T04:13:08.589Z,2.73
2022-08-11T04:17:49.269Z,2.93
2022-08-11T04:22:18.102Z,2.60
2022-08-11T04:26:39.010Z,2.90
2022-08-11T04:30:58.877Z,2.83
2022-08-11T04:35:19.077Z,2.67
2022-08-11T04:39:39.418Z,2.57
2022-08-11T04:44:24.981Z,2.50
2022-08-11T04:49:07.869Z,2.43
2022-08-11T04:53:25.794Z,2.37
2022-08-11T04:57:41.046Z,2.27
2022-08-11T05:02:17.054Z,2.60
2022-08-11T05:07:03.063Z,2.50
2022-08-11T05:11:25.323Z,2.33
2022-08-11T05:15:43.158Z,2.33
2022-08-11T05:19:46.719Z,2.60
2022-08-11T05:23:57.308Z,2.57
2022-08-11T05:28:05.910Z,2.30
2022-08-11T05:32:12.522Z,2.57
2022-08-11T05:36:24.225Z,2.33
2022-08-11T05:40:25.999Z,2.80
2022-08-11T05:44:30.881Z,2.43
2022-08-11T05:48:35.197Z,2.57
2022-08-11T05:52:41.601Z,2.47
2022-08-11T05:56:49.620Z,2.73
2022-08-11T06:00:53.482Z,3.23
2022-08-11T06:04:56.748Z,2.90
2022-08-11T06:09:00.219Z,3.20
2022-08-11T06:13:04.365Z,3.27
2022-08-11T06:17:07.543Z,3.23
2022-08-11T06:21:10.840Z,3.13
2022-08-11T06:25:14.456Z,2.70
2022-08-11T06:29:17.490Z,2.97
2022-08-11T06:33:34.943Z,2.87
2022-08-11T06:37:44.744Z,2.83
2022-08-11T06:41:51.940Z,2.83
2022-08-11T06:45:58.989Z,2.40
2022-08-11T06:50:03.038Z,2.83
2022-08-11T06:54:05.836Z,2.90
2022-08-11T06:58:13.600Z,2.80
2022-08-11T07:02:20.256Z,2.40
2022-08-11T07:06:39.902Z,2.67
2022-08-11T07:11:06.588Z,2.57
2022-08-11T07:15:10.951Z,3.03
2022-08-11T07:19:17.463Z,2.37
2022-08-11T07:23:21.128Z,2.73
2022-08-11T07:27:26.573Z,2.80
2022-08-11T07:31:35.931Z,2.70
2022-08-11T07:35:42.797Z,2.83
2022-08-11T07:39:47.830Z,2.83
2022-08-11T07:43:53.777Z,2.80
2022-08-11T07:47:56.100Z,2.60
2022-08-11T07:51:57.870Z,2.67
2022-08-11T07:56:02.352Z,2.67
2022-08-11T08:00:08.269Z,2.90
2022-08-11T08:04:14.382Z,2.63
2022-08-11T08:08:17.306Z,2.30
2022-08-11T08:12:23.952Z,2.43
2022-08-11T08:16:25.895Z,2.70
2022-08-11T08:20:30.575Z,2.60
2022-08-11T08:24:33.644Z,2.70
2022-08-11T08:28:36.795Z,2.80
2022-08-11T08:32:41.638Z,2.73
2022-08-11T08:36:45.708Z,2.87
2022-08-11T08:40:52.308Z,2.80
2022-08-11T08:45:08.069Z,2.80
2022-08-11T08:49:14.661Z,2.73
2022-08-11T08:53:20.753Z,2.60
2022-08-11T08:57:23.837Z,2.50
2022-08-11T09:01:29.298Z,2.72
2022-08-11T09:05:31.490Z,2.53
2022-08-11T09:09:33.815Z,2.33
2022-08-11T09:13:37.314Z,2.40
2022-08-11T09:17:46.443Z,2.47
2022-08-11T09:21:49.947Z,2.45
2022-08-11T09:25:56.135Z,2.88
2022-08-11T09:29:58.431Z,2.90
2022-08-11T09:34:02.880Z,2.75
2022-08-11T09:38:06.191Z,2.60
2022-08-11T09:42:11.402Z,2.50
2022-08-11T09:46:24.483Z,2.08
2022-08-11T09:50:28.070Z,2.50
2022-08-11T09:54:30.143Z,1.85
2022-08-11T09:58:42.612Z,2.33
2022-08-11T10:02:47.274Z,2.20
2022-08-11T10:06:54.350Z,2.15
2022-08-11T10:10:57.415Z,2.28
2022-08-11T10:15:04.177Z,2.10
2022-08-11T10:19:08.136Z,2.03
2022-08-11T10:23:13.442Z,1.90
2022-08-11T10:27:15.274Z,1.83
2022-08-11T10:31:19.466Z,2.00
2022-08-11T10:35:22.279Z,4.30
2022-08-11T10:39:27.109Z,2.50
2022-08-11T10:44:02.536Z,2.20
2022-08-11T10:47:52.515Z,2.33
2022-08-11T10:51:58.785Z,2.20
2022-08-11T11:00:10.986Z,2.40
2022-08-11T11:04:15.439Z,2.58
2022-08-11T11:08:23.354Z,2.05
2022-08-11T11:12:31.670Z,1.90
2022-08-11T11:16:35.221Z,2.00
2022-08-11T11:20:46.563Z,2.10
2022-08-11T11:25:01.633Z,2.33
2022-08-11T11:29:30.353Z,2.10
2022-08-11T11:34:06.273Z,2.20
2022-08-11T11:38:13.872Z,2.08
2022-08-11T11:42:17.512Z,2.17
2022-08-11T11:46:20.798Z,2.30
2022-08-11T11:50:24.137Z,2.00
2022-08-11T11:54:30.936Z,2.10
2022-08-11T11:58:32.624Z,2.15
2022-08-11T12:02:36.435Z,2.10
2022-08-11T12:06:38.753Z,2.13
2022-08-11T12:10:43.292Z,2.60
2022-08-11T12:14:45.042Z,2.40
2022-08-11T12:18:50.559Z,2.10
2022-08-11T12:22:56.175Z,2.50
2022-08-11T12:27:16.133Z,2.50
2022-08-11T12:31:19.526Z,2.25
2022-08-11T12:35:22.529Z,2.30
2022-08-11T12:40:16.264Z,2.40
2022-08-11T12:43:56.454Z,2.20
2022-08-11T12:48:12.259Z,2.60
2022-08-11T12:52:34.169Z,2.35
2022-08-11T12:56:47.793Z,2.47
2022-08-11T13:00:50.327Z,2.20
2022-08-11T13:04:52.705Z,2.60
2022-08-11T13:09:00.941Z,2.30
2022-08-11T13:13:03.826Z,2.13
2022-08-11T13:17:43.703Z,2.80
2022-08-11T13:21:46.817Z,2.17
2022-08-11T13:25:51.498Z,2.30
2022-08-11T13:29:53.599Z,2.25
2022-08-11T13:33:55.738Z,2.30
2022-08-11T13:38:17.655Z,2.25
2022-08-11T13:42:21.608Z,2.42
2022-08-11T13:46:24.726Z,2.10
2022-08-11T13:50:33.415Z,2.40
2022-08-11T13:54:37.504Z,2.10
2022-08-11T13:58:41.225Z,2.42
2022-08-11T14:02:45.479Z,2.58
2022-08-11T14:06:51.916Z,2.30
2022-08-11T14:10:58.895Z,2.50
2022-08-11T14:15:08.624Z,2.28
2022-08-11T14:19:13.901Z,2.45
2022-08-11T14:23:17.838Z,2.10
2022-08-11T14:28:30.971Z,2.25
2022-08-11T14:31:46.749Z,2.30
2022-08-11T14:35:50.350Z,2.35
2022-08-11T14:40:00.705Z,2.45
2022-08-11T14:44:14.063Z,2.15
2022-08-11T14:48:17.940Z,2.50
2022-08-11T14:52:20.069Z,2.22
2022-08-11T14:56:23.794Z,2.60
2022-08-11T15:00:26.582Z,2.33
2022-08-11T15:04:36.122Z,2.30
2022-08-11T15:08:39.532Z,2.22
2022-08-11T15:12:41.540Z,2.30
2022-08-11T15:16:45.029Z,2.35
2022-08-11T15:20:47.924Z,2.30
2022-08-11T15:24:57.057Z,2.30
2022-08-11T15:28:58.840Z,2.33
2022-08-11T15:33:04.432Z,2.28
2022-08-11T15:37:11.368Z,2.13
2022-08-11T15:41:16.720Z,2.35
2022-08-11T15:45:25.163Z,2.70
2022-08-11T15:50:12.108Z,2.35
2022-08-11T15:53:57.019Z,2.28
2022-08-11T15:58:02.131Z,2.30
2022-08-11T16:02:06.373Z,2.30
2022-08-11T16:06:08.043Z,2.30
2022-08-11T16:10:17.945Z,2.30
2022-08-11T16:14:24.294Z,2.55
2022-08-11T16:18:31.423Z,2.60
2022-08-11T16:22:35.331Z,2.30
2022-08-11T16:27:10.724Z,2.50
2022-08-11T16:31:05.340Z,2.60
2022-08-11T16:35:10.966Z,2.70
2022-08-11T16:39:13.663Z,2.50
2022-08-11T16:43:19.010Z,2.38
2022-08-11T16:48:03.602Z,2.45
2022-08-11T16:51:45.228Z,2.47
2022-08-11T16:55:52.649Z,2.30
2022-08-11T17:00:01.286Z,2.60
2022-08-11T17:04:08.155Z,2.40
2022-08-11T17:08:10.926Z,2.33
2022-08-11T17:12:14.262Z,2.60
2022-08-11T17:16:23.224Z,2.45
2022-08-11T17:20:43.178Z,2.10
2022-08-11T17:24:47.934Z,2.33
2022-08-11T17:28:53.857Z,2.10
2022-08-11T17:33:00.599Z,2.50
2022-08-11T17:37:04.006Z,2.45
2022-08-11T17:41:07.360Z,2.45
2022-08-11T17:45:11.444Z,2.30
2022-08-11T17:49:16.296Z,2.50
2022-08-11T17:53:19.606Z,2.35
2022-08-11T17:57:23.242Z,2.65
2022-08-11T18:01:25.771Z,2.08
2022-08-11T18:05:32.390Z,2.45
2022-08-11T18:09:33.905Z,2.60
2022-08-11T18:13:38.189Z,2.70
2022-08-11T18:17:41.220Z,2.78
2022-08-11T18:21:46.563Z,2.60
2022-08-11T18:26:10.545Z,2.30
2022-08-11T18:30:12.471Z,2.42
2022-08-11T18:34:20.473Z,2.33
2022-08-11T18:38:28.795Z,2.85
2022-08-11T18:42:38.011Z,2.60
2022-08-11T18:46:42.833Z,2.53
2022-08-11T18:50:57.794Z,2.60
2022-08-11T18:55:16.669Z,2.58
2022-08-11T18:59:23.685Z,2.40
2022-08-11T19:03:27.497Z,3.03
2022-08-11T19:07:31.512Z,2.30
2022-08-11T19:11:42.826Z,2.55
2022-08-11T19:15:46.359Z,3.42
2022-08-11T19:19:48.898Z,3.05
2022-08-11T19:24:02.269Z,5.25
2022-08-11T19:28:07.664Z,5.50
2022-08-11T19:32:10.084Z,3.55
2022-08-11T19:36:12.863Z,3.00
2022-08-11T19:40:15.798Z,2.80
2022-08-11T19:44:21.269Z,2.70
2022-08-11T19:48:32.569Z,2.72
2022-08-11T19:52:36.321Z,2.97
2022-08-11T19:56:38.820Z,2.80
2022-08-11T20:00:42.283Z,2.67
2022-08-11T20:04:44.528Z,2.67
2022-08-11T20:08:49.877Z,2.90
2022-08-11T20:12:53.089Z,3.00
2022-08-11T20:16:56.894Z,2.90
2022-08-11T20:21:00.386Z,2.83
2022-08-11T20:25:05.189Z,2.87
2022-08-11T20:29:07.971Z,2.70
2022-08-11T20:33:11.234Z,2.70
2022-08-11T20:37:13.767Z,2.80
2022-08-11T20:41:17.805Z,3.30
2022-08-11T20:45:24.036Z,2.90
2022-08-11T20:49:28.369Z,2.50
2022-08-11T20:53:48.158Z,2.70
2022-08-11T20:58:04.119Z,2.70
2022-08-11T21:02:10.326Z,2.90
2022-08-11T21:06:15.708Z,2.60
2022-08-11T21:10:36.607Z,2.60
2022-08-11T21:14:39.852Z,2.80
2022-08-11T21:18:48.940Z,2.80
2022-08-11T21:22:59.615Z,2.87
2022-08-11T21:27:10.432Z,3.00
2022-08-11T21:31:20.049Z,3.03
2022-08-11T21:35:22.916Z,3.50
2022-08-11T21:39:26.395Z,2.90
2022-08-11T21:43:31.439Z,3.20
2022-08-11T21:47:43.608Z,3.03
2022-08-11T21:51:45.801Z,3.20
2022-08-11T21:55:51.220Z,3.40
2022-08-11T21:59:55.700Z,3.37
2022-08-11T22:03:58.520Z,3.20
2022-08-11T22:08:00.260Z,3.10
2022-08-11T22:12:33.323Z,3.10
2022-08-11T22:16:25.752Z,3.10
2022-08-11T22:20:30.218Z,2.90
2022-08-11T22:24:33.100Z,3.40
2022-08-11T22:28:36.035Z,3.10
2022-08-11T22:32:38.868Z,3.30
2022-08-11T22:36:41.431Z,3.10
2022-08-11T22:40:43.490Z,3.53
2022-08-11T22:44:46.408Z,3.30
2022-08-11T22:48:49.280Z,3.00
2022-08-11T22:52:51.820Z,3.20
2022-08-11T22:56:53.803Z,3.13
2022-08-11T23:00:57.571Z,3.40
2022-08-11T23:04:59.760Z,3.33
2022-08-11T23:09:02.317Z,3.33
2022-08-11T23:13:04.508Z,3.87
2022-08-11T23:17:07.695Z,3.30
2022-08-11T23:21:10.922Z,3.30
2022-08-11T23:25:17.940Z,3.03
2022-08-11T23:29:20.200Z,3.20
2022-08-11T23:33:25.037Z,3.30
2022-08-11T23:37:26.608Z,2.97
2022-08-11T23:41:28.820Z,3.63
2022-08-11T23:45:30.365Z,3.27
2022-08-11T23:49:35.907Z,3.17
2022-08-11T23:53:38.488Z,3.00
2022-08-11T23:57:47.912Z,3.30
